createdAt,value
2023-03-14T00:01:24.602Z,4.70
2023-03-14T00:03:53.784Z,4.90
2023-03-14T00:06:23.278Z,4.30
2023-03-14T00:08:52.324Z,4.90
2023-03-14T00:11:22.940Z,4.30
2023-03-14T00:13:52.448Z,4.10
2023-03-14T00:16:21.672Z,4.10
2023-03-14T00:18:51.009Z,4.60
2023-03-14T00:21:21.215Z,4.60
2023-03-14T00:23:50.193Z,4.60
2023-03-14T00:26:22.118Z,5.10
2023-03-14T00:28:54.652Z,5.40
2023-03-14T00:31:24.045Z,4.90
2023-03-14T00:33:54.921Z,4.30
2023-03-14T00:36:24.235Z,4.90
2023-03-14T00:38:56.165Z,5.10
2023-03-14T00:41:25.453Z,4.70
2023-03-14T00:43:54.454Z,5.40
2023-03-14T00:46:23.214Z,4.70
2023-03-14T00:48:52.093Z,5.20
2023-03-14T00:51:21.022Z,5.50
2023-03-14T00:53:49.892Z,4.70
2023-03-14T00:56:18.670Z,5.00
2023-03-14T00:58:47.439Z,4.90
2023-03-14T01:01:18.954Z,4.80
2023-03-14T01:03:48.804Z,5.30
2023-03-14T01:06:20.470Z,4.10
2023-03-14T01:08:49.807Z,4.80
2023-03-14T01:11:20.254Z,4.90
2023-03-14T01:13:49.804Z,4.70
2023-03-14T01:16:20.072Z,4.80
2023-03-14T01:18:49.677Z,5.40
2023-03-14T01:21:21.066Z,4.80
2023-03-14T01:23:51.152Z,4.40
2023-03-14T01:26:23.017Z,5.20
2023-03-14T01:28:54.639Z,4.70
2023-03-14T01:31:25.392Z,5.20
2023-03-14T01:33:55.080Z,4.60
2023-03-14T01:36:26.801Z,4.50
2023-03-14T01:38:56.085Z,5.60
2023-03-14T01:41:27.688Z,4.40
2023-03-14T01:43:58.834Z,5.10
2023-03-14T01:46:36.735Z,4.90
2023-03-14T01:49:29.427Z,4.70
2023-03-14T01:52:10.092Z,4.30
2023-03-14T01:54:42.915Z,3.90
2023-03-14T01:57:16.904Z,4.70
2023-03-14T01:59:50.962Z,4.60
2023-03-14T02:02:20.307Z,4.70
2023-03-14T02:04:50.020Z,3.90
2023-03-14T02:07:23.779Z,4.30
2023-03-14T02:10:02.983Z,4.70
2023-03-14T02:12:34.771Z,4.20
2023-03-14T02:15:27.103Z,4.20
2023-03-14T02:18:04.884Z,4.80
2023-03-14T02:21:17.943Z,4.80
2023-03-14T02:23:54.771Z,4.60
2023-03-14T02:26:28.751Z,4.70
2023-03-14T02:28:58.020Z,4.50
2023-03-14T02:31:26.811Z,4.20
2023-03-14T02:33:57.659Z,4.60
2023-03-14T02:36:27.504Z,4.50
2023-03-14T02:39:07.097Z,5.00
2023-03-14T02:41:36.509Z,5.60
2023-03-14T02:44:07.735Z,4.70
2023-03-14T02:46:36.675Z,4.50
2023-03-14T02:49:12.910Z,5.20
2023-03-14T02:51:42.825Z,5.40
2023-03-14T02:54:12.674Z,5.20
2023-03-14T02:56:41.466Z,4.90
2023-03-14T02:59:14.910Z,4.60
2023-03-14T03:02:01.325Z,4.30
2023-03-14T03:04:30.760Z,4.30
2023-03-14T03:06:59.762Z,4.80
2023-03-14T03:09:28.955Z,4.20
2023-03-14T03:11:57.664Z,4.70
2023-03-14T03:14:28.193Z,4.30
2023-03-14T03:16:58.729Z,4.00
2023-03-14T03:19:27.524Z,3.60
2023-03-14T03:21:56.202Z,4.40
2023-03-14T03:24:24.979Z,4.10
2023-03-14T03:26:54.449Z,4.60
2023-03-14T03:29:23.603Z,4.00
2023-03-14T03:31:55.534Z,3.80
2023-03-14T03:34:24.637Z,3.80
2023-03-14T03:36:56.648Z,3.70
2023-03-14T03:39:25.801Z,3.40
2023-03-14T03:41:54.600Z,4.00
2023-03-14T03:44:24.625Z,2.70
2023-03-14T03:46:54.255Z,3.60
2023-03-14T03:49:23.245Z,3.50
2023-03-14T03:51:52.842Z,3.00
2023-03-14T03:54:21.857Z,3.50
2023-03-14T03:56:51.122Z,3.50
2023-03-14T03:59:20.709Z,3.30
2023-03-14T04:01:50.633Z,3.40
2023-03-14T04:04:20.755Z,2.50
2023-03-14T04:06:51.918Z,3.30
2023-03-14T04:09:20.983Z,3.40
2023-03-14T04:12:11.508Z,3.50
2023-03-14T04:15:00.961Z,3.60
2023-03-14T04:17:29.711Z,4.00
2023-03-14T04:19:58.899Z,3.90
2023-03-14T04:22:35.271Z,3.40
2023-03-14T04:25:09.304Z,3.20
2023-03-14T04:27:42.896Z,3.70
2023-03-14T04:30:19.502Z,3.60
2023-03-14T04:32:53.567Z,3.10
2023-03-14T04:35:25.085Z,3.50
2023-03-14T04:37:58.077Z,3.20
2023-03-14T04:40:27.092Z,3.20
2023-03-14T04:43:00.693Z,3.20
2023-03-14T04:45:29.958Z,2.80
2023-03-14T04:48:01.499Z,2.80
2023-03-14T04:50:31.166Z,3.20
2023-03-14T04:53:00.304Z,3.00
2023-03-14T04:55:29.276Z,3.30
2023-03-14T04:57:59.840Z,3.60
2023-03-14T05:00:29.339Z,2.30
2023-03-14T05:03:16.615Z,3.10
2023-03-14T05:05:55.591Z,2.80
2023-03-14T05:08:45.526Z,2.80
2023-03-14T05:11:14.380Z,2.90
2023-03-14T05:13:52.001Z,2.80
2023-03-14T05:16:20.854Z,4.30
2023-03-14T05:18:59.113Z,3.00
2023-03-14T05:21:54.510Z,2.80
2023-03-14T05:24:29.769Z,2.60
2023-03-14T05:27:06.803Z,2.90
2023-03-14T05:29:53.865Z,3.40
2023-03-14T05:32:40.138Z,3.20
2023-03-14T05:35:38.533Z,2.60
2023-03-14T05:38:19.920Z,3.20
2023-03-14T05:41:07.233Z,2.70
2023-03-14T05:43:39.923Z,3.50
2023-03-14T05:46:31.712Z,2.80
2023-03-14T05:49:24.663Z,3.20
2023-03-14T05:54:50.824Z,2.90
2023-03-14T05:57:30.003Z,3.20
2023-03-14T06:00:19.911Z,3.20
2023-03-14T06:02:58.243Z,3.00
2023-03-14T06:05:29.737Z,3.00
2023-03-14T06:08:02.111Z,3.10
2023-03-14T06:10:33.168Z,2.80
2023-03-14T06:13:06.572Z,2.90
2023-03-14T06:15:40.179Z,2.70
2023-03-14T06:18:09.231Z,3.20
2023-03-14T06:20:40.123Z,2.80
2023-03-14T06:23:10.262Z,2.60
2023-03-14T06:25:39.001Z,2.70
2023-03-14T06:28:07.597Z,3.20
2023-03-14T06:30:37.420Z,2.80
2023-03-14T06:33:10.871Z,2.80
2023-03-14T06:35:40.892Z,2.90
2023-03-14T06:38:09.762Z,2.60
2023-03-14T06:40:38.844Z,2.20
2023-03-14T06:43:14.928Z,2.70
2023-03-14T06:45:45.799Z,2.70
2023-03-14T06:48:15.210Z,3.00
2023-03-14T06:50:51.722Z,3.10
2023-03-14T06:53:21.568Z,3.50
2023-03-14T06:55:50.526Z,2.90
2023-03-14T06:58:21.079Z,3.60
2023-03-14T07:00:49.762Z,3.40
2023-03-14T07:03:23.085Z,3.00
2023-03-14T07:05:53.389Z,2.60
2023-03-14T07:08:22.875Z,3.30
2023-03-14T07:10:52.169Z,3.20
2023-03-14T07:13:25.125Z,3.20
2023-03-14T07:16:09.716Z,3.00
2023-03-14T07:18:39.175Z,3.10
2023-03-14T07:21:09.541Z,3.30
2023-03-14T07:23:40.080Z,3.40
2023-03-14T07:26:09.725Z,3.40
2023-03-14T07:28:41.029Z,3.50
2023-03-14T07:31:13.228Z,3.50
2023-03-14T07:33:42.633Z,3.80
2023-03-14T07:36:15.060Z,3.80
2023-03-14T07:38:46.124Z,3.30
2023-03-14T07:41:53.883Z,4.70
2023-03-14T07:44:41.262Z,5.30
2023-03-14T07:47:13.339Z,5.10
2023-03-14T08:12:50.169Z,3.80
2023-03-14T08:32:34.437Z,6.20
2023-03-14T08:40:07.615Z,4.80
2023-03-14T08:46:50.771Z,2.90
2023-03-14T08:48:02.023Z,3.90
2023-03-14T08:52:29.647Z,3.50
2023-03-14T08:55:32.838Z,2.90
2023-03-14T08:58:08.491Z,3.50
2023-03-14T09:00:37.348Z,3.80
2023-03-14T09:03:08.072Z,3.70
2023-03-14T09:05:39.377Z,3.60
2023-03-14T09:08:08.600Z,5.20
2023-03-14T09:10:39.080Z,4.70
2023-03-14T09:13:07.896Z,5.00
2023-03-14T09:15:36.677Z,4.20
2023-03-14T09:18:09.148Z,6.50
2023-03-14T09:20:38.053Z,6.40
2023-03-14T09:23:06.907Z,4.50
2023-03-14T09:25:35.672Z,4.00
2023-03-14T09:28:05.581Z,4.50
2023-03-14T09:30:34.683Z,3.90
2023-03-14T09:33:08.795Z,5.50
2023-03-14T09:35:37.793Z,4.20
2023-03-14T09:38:07.358Z,3.60
2023-03-14T09:40:38.535Z,4.30
2023-03-14T09:43:10.704Z,4.10
2023-03-14T09:45:43.257Z,3.40
2023-03-14T09:48:17.462Z,6.10
2023-03-14T09:50:50.668Z,4.50
2023-03-14T09:53:24.041Z,3.80
2023-03-14T09:55:55.798Z,3.30
2023-03-14T09:58:25.548Z,3.50
2023-03-14T10:00:57.278Z,3.20
2023-03-14T10:03:30.308Z,5.20
2023-03-14T10:05:59.686Z,9.10
2023-03-14T10:08:29.667Z,7.60
2023-03-14T10:11:00.093Z,4.40
2023-03-14T10:13:32.134Z,9.10
2023-03-14T10:16:09.461Z,3.60
2023-03-14T10:18:38.542Z,4.10
2023-03-14T10:21:18.461Z,4.20
2023-03-14T10:23:49.737Z,3.40
2023-03-14T10:26:24.086Z,8.70
2023-03-14T10:29:02.217Z,4.90
2023-03-14T10:34:26.614Z,4.50
2023-03-14T10:36:58.249Z,4.60
2023-03-14T10:39:39.409Z,4.10
2023-03-14T10:42:15.996Z,4.70
2023-03-14T10:44:46.126Z,3.70
2023-03-14T10:47:21.353Z,3.80
2023-03-14T10:49:50.252Z,4.90
2023-03-14T10:52:30.751Z,4.10
2023-03-14T10:55:12.716Z,3.40
2023-03-14T10:57:41.800Z,3.10
2023-03-14T11:00:20.689Z,2.80
2023-03-14T11:03:11.604Z,3.30
2023-03-14T11:05:46.620Z,4.10
2023-03-14T11:08:21.708Z,4.00
2023-03-14T11:10:55.275Z,4.70
2023-03-14T11:13:29.084Z,3.40
2023-03-14T11:16:16.195Z,3.70
2023-03-14T11:18:56.819Z,5.10
2023-03-14T11:21:33.899Z,4.80
2023-03-14T11:24:34.067Z,4.10
2023-03-14T11:27:13.334Z,4.00
2023-03-14T11:29:47.354Z,4.50
2023-03-14T11:32:24.617Z,5.60
2023-03-14T11:34:55.478Z,5.30
2023-03-14T11:37:32.775Z,8.40
2023-03-14T11:40:10.597Z,6.10
2023-03-14T11:42:43.777Z,8.90
2023-03-14T11:45:18.817Z,6.20
2023-03-14T11:47:54.251Z,4.10
2023-03-14T11:50:29.144Z,5.40
2023-03-14T11:53:06.440Z,4.80
2023-03-14T11:55:37.289Z,4.70
2023-03-14T11:58:16.827Z,5.90
2023-03-14T12:00:47.023Z,5.70
2023-03-14T12:03:22.253Z,4.50
2023-03-14T12:06:03.845Z,3.90
2023-03-14T12:08:43.250Z,4.90
2023-03-14T12:11:25.670Z,4.30
2023-03-14T12:13:56.884Z,4.60
2023-03-14T12:16:35.560Z,12.40
2023-03-14T12:19:30.148Z,6.60
2023-03-14T12:22:09.579Z,4.80
2023-03-14T12:24:46.418Z,4.80
2023-03-14T12:27:55.012Z,5.20
2023-03-14T12:30:30.484Z,4.80
2023-03-14T12:33:34.151Z,4.40
2023-03-14T12:36:20.928Z,4.90
2023-03-14T12:39:02.206Z,4.70
2023-03-14T12:41:48.470Z,5.80
2023-03-14T12:44:48.147Z,7.30
2023-03-14T12:47:59.705Z,6.40
2023-03-14T12:50:37.057Z,7.00
2023-03-14T12:53:44.013Z,5.70
2023-03-14T12:56:23.898Z,7.00
2023-03-14T12:59:17.770Z,5.30
2023-03-14T13:01:56.292Z,4.90
2023-03-14T13:04:39.011Z,5.50
2023-03-14T13:07:14.365Z,6.90
2023-03-14T13:10:20.320Z,5.70
2023-03-14T13:12:54.875Z,6.20
2023-03-14T13:15:32.577Z,5.20
2023-03-14T13:18:11.181Z,4.30
2023-03-14T13:20:45.391Z,4.60
2023-03-14T13:23:24.228Z,3.90
2023-03-14T13:25:53.854Z,3.30
2023-03-14T13:28:23.734Z,3.60
2023-03-14T13:31:23.375Z,4.00
2023-03-14T13:34:09.840Z,4.50
2023-03-14T13:36:42.279Z,3.40
2023-03-14T13:42:00.113Z,4.70
2023-03-14T13:44:42.827Z,5.00
2023-03-14T13:47:20.843Z,4.60
2023-03-14T13:50:19.769Z,4.60
2023-03-14T13:53:10.297Z,4.20
2023-03-14T13:55:46.978Z,4.20
2023-03-14T13:58:36.232Z,3.50
2023-03-14T14:01:18.412Z,3.40
2023-03-14T14:03:57.385Z,3.80
2023-03-14T14:06:38.894Z,3.70
2023-03-14T14:09:19.501Z,3.40
2023-03-14T14:12:17.479Z,3.20
2023-03-14T14:14:55.215Z,3.30
2023-03-14T14:20:36.044Z,3.30
2023-03-14T14:23:18.355Z,3.10
2023-03-14T14:25:50.076Z,3.20
2023-03-14T14:28:30.008Z,3.40
2023-03-14T14:31:18.613Z,3.40
2023-03-14T14:34:00.610Z,3.50
2023-03-14T14:36:38.301Z,3.20
2023-03-14T14:39:19.765Z,3.30
2023-03-14T14:41:59.055Z,3.60
2023-03-14T14:44:33.174Z,3.80
2023-03-14T14:47:07.452Z,4.00
2023-03-14T14:49:36.627Z,3.60
2023-03-14T14:52:16.110Z,3.90
2023-03-14T15:05:01.116Z,3.50
2023-03-14T15:09:10.786Z,3.60
2023-03-14T15:20:26.145Z,3.20
2023-03-14T15:22:57.323Z,3.60
2023-03-14T15:25:53.614Z,4.00
2023-03-14T15:28:20.797Z,4.50
2023-03-14T15:30:52.761Z,4.80
2023-03-14T15:33:23.702Z,5.10
2023-03-14T15:35:54.818Z,5.10
2023-03-14T15:43:57.974Z,5.90
2023-03-14T15:47:52.930Z,7.70
2023-03-14T15:50:58.035Z,6.10
2023-03-14T15:57:55.194Z,5.80
2023-03-14T16:01:56.673Z,4.90
2023-03-14T16:05:44.191Z,5.60
2023-03-14T16:18:12.080Z,4.40
2023-03-14T16:20:56.762Z,4.80
2023-03-14T16:23:26.977Z,5.50
2023-03-14T16:25:56.574Z,5.40
2023-03-14T16:28:37.662Z,4.70
2023-03-14T16:31:12.437Z,4.80
2023-03-14T16:33:41.235Z,3.90
2023-03-14T16:36:12.814Z,4.30
2023-03-14T16:38:44.305Z,5.10
2023-03-14T16:41:16.423Z,5.50
2023-03-14T16:43:45.946Z,6.10
2023-03-14T16:46:22.059Z,5.30
2023-03-14T16:48:52.100Z,5.70
2023-03-14T16:51:27.170Z,5.10
2023-03-14T16:54:00.228Z,5.60
2023-03-14T16:56:29.800Z,5.50
2023-03-14T16:58:59.178Z,5.00
2023-03-14T17:01:34.076Z,5.20
2023-03-14T17:04:05.472Z,5.70
2023-03-14T17:06:39.465Z,5.10
2023-03-14T17:09:12.581Z,5.30
2023-03-14T17:11:42.213Z,5.70
2023-03-14T17:14:13.141Z,6.40
2023-03-14T17:16:42.434Z,6.00
2023-03-14T17:19:12.791Z,5.70
2023-03-14T17:21:42.769Z,6.70
2023-03-14T17:24:12.055Z,5.90
2023-03-14T17:26:42.780Z,6.90
2023-03-14T17:29:11.439Z,6.60
2023-03-14T17:32:08.054Z,6.00
2023-03-14T17:34:37.163Z,5.60
2023-03-14T17:37:09.071Z,7.30
2023-03-14T17:39:40.449Z,6.80
2023-03-14T17:42:12.158Z,8.10
2023-03-14T17:44:42.423Z,6.10
2023-03-14T17:47:14.495Z,6.00
2023-03-14T17:49:46.469Z,5.40
2023-03-14T17:52:15.564Z,7.00
2023-03-14T17:54:44.467Z,9.10
2023-03-14T17:57:14.572Z,7.00
2023-03-14T17:59:43.254Z,6.10
2023-03-14T18:02:14.213Z,6.00
2023-03-14T18:04:46.006Z,6.50
2023-03-14T18:07:15.316Z,6.40
2023-03-14T18:09:44.279Z,5.30
2023-03-14T18:12:13.517Z,5.50
2023-03-14T18:14:43.871Z,5.60
2023-03-14T18:17:13.461Z,5.90
2023-03-14T18:19:42.681Z,5.70
2023-03-14T18:22:12.394Z,4.70
2023-03-14T18:24:41.217Z,5.10
2023-03-14T18:27:10.571Z,4.20
2023-03-14T18:29:42.458Z,4.80
2023-03-14T18:32:11.806Z,4.70
2023-03-14T18:34:42.377Z,5.40
2023-03-14T18:37:11.578Z,4.20
2023-03-14T18:39:41.114Z,4.30
2023-03-14T18:42:10.388Z,4.60
2023-03-14T18:44:41.169Z,4.80
2023-03-14T18:47:15.245Z,4.80
2023-03-14T18:49:44.179Z,4.60
2023-03-14T18:52:13.067Z,4.60
2023-03-14T18:54:41.967Z,4.50
2023-03-14T18:57:12.132Z,4.90
2023-03-14T18:59:41.342Z,4.60
2023-03-14T19:02:16.596Z,3.90
2023-03-14T19:04:45.770Z,4.60
2023-03-14T19:07:14.778Z,4.70
2023-03-14T19:09:43.787Z,4.60
2023-03-14T19:12:13.057Z,4.40
2023-03-14T19:14:41.843Z,4.00
2023-03-14T19:17:14.491Z,4.50
2023-03-14T19:19:43.245Z,3.90
2023-03-14T19:22:14.897Z,4.10
2023-03-14T19:24:43.679Z,3.90
2023-03-14T19:27:13.612Z,4.00
2023-03-14T19:29:42.496Z,4.20
2023-03-14T19:32:13.095Z,4.00
2023-03-14T19:34:43.555Z,4.20
2023-03-14T19:37:12.944Z,3.90
2023-03-14T19:39:46.530Z,3.90
2023-03-14T19:42:17.573Z,4.00
2023-03-14T19:44:47.300Z,4.00
2023-03-14T19:47:17.187Z,4.40
2023-03-14T19:49:53.520Z,4.00
2023-03-14T19:52:22.886Z,4.60
2023-03-14T19:54:51.903Z,4.90
2023-03-14T19:57:21.468Z,4.30
2023-03-14T19:59:51.338Z,4.90
2023-03-14T20:02:23.550Z,4.80
2023-03-14T20:04:54.061Z,4.10
2023-03-14T20:07:28.209Z,4.40
2023-03-14T20:09:57.804Z,4.90
2023-03-14T20:12:31.651Z,5.30
2023-03-14T20:15:12.309Z,5.30
2023-03-14T20:17:47.479Z,4.90
2023-03-14T20:20:27.252Z,5.40
2023-03-14T20:23:10.426Z,4.60
2023-03-14T20:25:56.806Z,4.20
2023-03-14T20:28:31.327Z,5.00
2023-03-14T20:31:03.756Z,5.60
2023-03-14T20:33:39.493Z,5.40
2023-03-14T20:36:12.908Z,4.90
2023-03-14T20:38:46.500Z,5.60
2023-03-14T20:41:19.473Z,5.00
2023-03-14T20:43:50.678Z,5.00
2023-03-14T20:46:24.196Z,4.10
2023-03-14T20:48:56.177Z,5.20
2023-03-14T20:51:25.500Z,5.30
2023-03-14T20:53:54.379Z,4.80
2023-03-14T20:56:23.345Z,5.00
2023-03-14T20:58:52.113Z,5.40
2023-03-14T21:04:09.249Z,5.50
2023-03-14T21:06:38.202Z,4.90
2023-03-14T21:09:06.965Z,4.20
2023-03-14T21:11:36.496Z,4.80
2023-03-14T21:14:06.496Z,5.00
2023-03-14T21:16:35.608Z,5.30
2023-03-14T21:19:05.581Z,5.10
2023-03-14T21:21:34.610Z,5.00
2023-03-14T21:24:06.523Z,4.80
2023-03-14T21:26:35.623Z,5.10
2023-03-14T21:29:07.499Z,5.40
2023-03-14T21:31:36.620Z,6.10
2023-03-14T21:34:06.304Z,5.70
2023-03-14T21:36:35.169Z,5.20
2023-03-14T21:39:05.599Z,5.60
2023-03-14T21:41:34.811Z,5.90
2023-03-14T21:44:05.040Z,5.70
2023-03-14T21:46:36.659Z,5.90
2023-03-14T21:49:06.503Z,6.00
2023-03-14T21:51:38.453Z,7.00
2023-03-14T21:54:10.013Z,5.70
2023-03-14T21:56:39.064Z,5.50
2023-03-14T21:59:07.890Z,12.70
2023-03-14T22:01:37.155Z,7.00
2023-03-14T22:04:07.921Z,5.00
2023-03-14T22:06:36.939Z,4.90
2023-03-14T22:09:06.965Z,4.60
2023-03-14T22:11:36.152Z,5.60
2023-03-14T22:14:06.603Z,5.60
2023-03-14T22:16:37.071Z,5.30
2023-03-14T22:19:07.305Z,5.50
2023-03-14T22:21:38.299Z,5.10
2023-03-14T22:24:08.143Z,5.80
2023-03-14T22:26:37.118Z,5.10
2023-03-14T22:29:07.371Z,5.00
2023-03-14T22:31:36.451Z,5.10
2023-03-14T22:34:07.617Z,5.60
2023-03-14T22:36:36.454Z,4.60
2023-03-14T22:39:06.316Z,5.50
2023-03-14T22:41:36.640Z,5.20
2023-03-14T22:44:06.217Z,4.70
2023-03-14T22:46:35.282Z,5.10
2023-03-14T22:49:05.459Z,5.40
2023-03-14T22:51:34.870Z,4.90
2023-03-14T22:54:04.697Z,4.50
2023-03-14T22:56:34.075Z,4.60
2023-03-14T22:59:03.354Z,4.80
2023-03-14T23:01:32.737Z,4.90
2023-03-14T23:04:05.292Z,4.50
2023-03-14T23:06:34.559Z,6.00
2023-03-14T23:09:05.361Z,4.90
2023-03-14T23:11:36.332Z,4.70
2023-03-14T23:14:08.050Z,5.60
2023-03-14T23:16:40.733Z,6.00
2023-03-14T23:19:10.544Z,5.50
2023-03-14T23:21:39.648Z,5.10
2023-03-14T23:24:11.600Z,5.40
2023-03-14T23:26:40.620Z,5.50
2023-03-14T23:29:13.337Z,5.60
2023-03-14T23:31:42.826Z,5.30
2023-03-14T23:34:11.832Z,5.80
2023-03-14T23:36:41.853Z,5.60
2023-03-14T23:39:11.461Z,5.40
2023-03-14T23:41:40.165Z,5.70
2023-03-14T23:44:12.665Z,5.40
2023-03-14T23:46:41.590Z,4.70
2023-03-14T23:49:12.761Z,4.80
2023-03-14T23:51:41.885Z,5.70
2023-03-14T23:54:10.570Z,5.10
2023-03-14T23:56:40.668Z,5.40
2023-03-14T23:59:10.291Z,6.00
